Time;durP1;ratioP1;P1;durP2;ratioP2;P2;SDS_P1;SDS_P2;PMS_P1;PMS_P2;Temp;Humidity;BMP_temperature;BMP_pressure;BME280_temperature;BME280_humidity;BME280_pressure;Samples;Min_cycle;Max_cycle;Signal;HPM_P1;HPM_P2
2023/01/06 00:01:10;;;;;;;32.38;8.15;;;10.00;99.90;;;;;;5021582;28;20029;-85
2023/01/06 00:03:36;;;;;;;25.23;8.23;;;11.40;99.90;;;;;;5026580;28;20486;-86
2023/01/06 00:06:04;;;;;;;24.80;8.15;;;10.70;99.90;;;;;;5004246;28;20068;-85
2023/01/06 00:08:30;;;;;;;30.20;8.77;;;9.90;99.90;;;;;;5022075;28;20068;-86
2023/01/06 00:10:56;;;;;;;41.67;9.15;;;10.00;99.90;;;;;;5005332;28;20049;-85
2023/01/06 00:13:25;;;;;;;25.58;8.32;;;10.00;99.90;;;;;;5003229;28;20508;-85
2023/01/06 00:15:54;;;;;;;30.17;8.63;;;11.10;99.90;;;;;;4994955;28;20045;-86
2023/01/06 00:18:21;;;;;;;35.45;8.02;;;11.80;99.90;;;;;;5035310;28;20049;-85
2023/01/06 00:20:47;;;;;;;32.78;8.20;;;11.00;99.90;;;;;;5018815;28;20053;-85
2023/01/06 00:23:13;;;;;;;31.33;8.68;;;11.80;99.90;;;;;;4999162;28;20122;-85
2023/01/06 00:25:48;;;;;;;39.45;8.50;;;11.60;99.90;;;;;;5015901;28;20528;-85
2023/01/06 00:28:14;;;;;;;34.72;8.25;;;9.90;99.90;;;;;;5033501;28;20038;-85
2023/01/06 00:30:47;;;;;;;32.80;6.93;;;10.30;99.90;;;;;;5055098;28;20049;-85
2023/01/06 00:33:14;;;;;;;37.53;8.30;;;11.30;99.90;;;;;;5030951;28;20052;-85
2023/01/06 00:35:42;;;;;;;31.13;6.95;;;10.20;99.90;;;;;;5023772;28;20041;-85
2023/01/06 00:38:08;;;;;;;34.58;7.32;;;10.50;99.90;;;;;;5003642;28;20377;-85
2023/01/06 00:40:40;;;;;;;30.70;7.32;;;10.00;99.90;;;;;;5002754;28;20048;-85
2023/01/06 00:43:06;;;;;;;26.17;7.30;;;10.10;99.90;;;;;;5019557;28;20425;-85
2023/01/06 00:45:31;;;;;;;29.25;6.72;;;10.00;99.90;;;;;;4987123;28;20038;-85
2023/01/06 00:47:57;;;;;;;21.85;6.90;;;11.20;99.90;;;;;;5020600;28;20513;-84
2023/01/06 00:50:23;;;;;;;22.70;5.85;;;11.20;99.90;;;;;;5022102;28;20164;-85
2023/01/06 00:52:49;;;;;;;23.27;6.10;;;10.10;99.90;;;;;;5022612;28;20047;-85
2023/01/06 00:55:26;;;;;;;22.55;5.78;;;10.00;99.90;;;;;;5019661;28;20046;-85
2023/01/06 00:57:52;;;;;;;15.60;4.05;;;10.10;99.90;;;;;;5018266;28;20169;-85
2023/01/06 01:00:21;;;;;;;17.27;5.07;;;11.50;99.90;;;;;;5022484;28;20131;-85
2023/01/06 01:02:47;;;;;;;20.10;5.55;;;11.00;99.90;;;;;;5022363;28;20336;-85
2023/01/06 01:05:13;;;;;;;24.48;5.45;;;10.10;99.90;;;;;;5029356;28;20056;-85
2023/01/06 01:07:39;;;;;;;15.73;4.10;;;10.20;99.90;;;;;;5022457;28;20033;-85
2023/01/06 01:10:06;;;;;;;15.10;4.32;;;10.30;99.90;;;;;;5038463;28;20378;-85
2023/01/06 01:12:32;;;;;;;15.52;3.58;;;10.10;99.90;;;;;;5027552;28;20047;-85
2023/01/06 01:14:58;;;;;;;11.95;3.42;;;10.20;99.90;;;;;;5008660;28;20053;-85
2023/01/06 01:17:26;;;;;;;16.35;2.90;;;11.80;99.90;;;;;;4989123;28;20095;-85
2023/01/06 01:19:54;;;;;;;11.52;3.20;;;10.10;99.90;;;;;;5005403;28;20103;-86
2023/01/06 01:22:22;;;;;;;13.55;3.65;;;10.30;99.90;;;;;;5024910;28;20065;-85
2023/01/06 01:24:47;;;;;;;8.98;2.72;;;11.80;99.90;;;;;;5024728;28;20049;-85
2023/01/06 01:27:14;;;;;;;12.18;3.05;;;10.10;99.90;;;;;;5055653;28;20523;-85
2023/01/06 01:29:39;;;;;;;13.23;3.55;;;11.30;99.90;;;;;;5027332;28;20127;-85
2023/01/06 01:32:06;;;;;;;11.55;2.95;;;11.40;99.90;;;;;;5023730;28;20125;-85
2023/01/06 01:34:32;;;;;;;11.15;3.17;;;;;;;;;;5005743;28;20400;-86
2023/01/06 01:36:59;;;;;;;13.07;3.40;;;10.10;99.90;;;;;;5041347;28;20050;-85
2023/01/06 01:39:26;;;;;;;14.52;3.35;;;10.10;99.90;;;;;;5010333;28;20108;-85
2023/01/06 01:41:55;;;;;;;14.75;3.65;;;10.10;99.90;;;;;;5008991;28;20046;-85
2023/01/06 01:44:52;;;;;;;11.57;4.05;;;10.10;99.90;;;;;;5025138;28;20542;-85
2023/01/06 01:47:26;;;;;;;15.68;3.50;;;10.10;99.90;;;;;;5057819;28;20047;-85
2023/01/06 01:49:57;;;;;;;15.00;3.22;;;10.10;99.90;;;;;;5005608;28;20041;-85
2023/01/06 01:52:24;;;;;;;12.60;4.22;;;10.00;99.90;;;;;;5007400;28;20052;-86
2023/01/06 01:54:52;;;;;;;12.13;3.97;;;10.10;99.90;;;;;;5007282;28;20045;-85
2023/01/06 01:57:30;;;;;;;15.02;4.38;;;10.10;99.90;;;;;;5021709;28;20115;-85
2023/01/06 01:59:59;;;;;;;10.75;3.20;;;10.70;99.90;;;;;;5020485;28;20432;-85
2023/01/06 02:02:27;;;;;;;13.07;3.35;;;10.00;99.90;;;;;;5004685;28;20044;-85
2023/01/06 02:04:54;;;;;;;13.18;3.80;;;10.00;99.90;;;;;;5020757;28;20052;-85
2023/01/06 02:07:23;;;;;;;8.98;3.50;;;10.20;99.90;;;;;;5055527;28;20532;-85
2023/01/06 02:10:17;;;;;;;11.45;3.72;;;10.10;99.90;;;;;;5024726;28;20081;-85
2023/01/06 02:12:46;;;;;;;9.65;3.35;;;10.00;99.90;;;;;;5047600;28;20037;-85
2023/01/06 02:15:19;;;;;;;11.75;3.53;;;11.00;99.90;;;;;;5004283;28;20081;-85
2023/01/06 02:17:54;;;;;;;13.10;4.20;;;10.00;99.90;;;;;;5008053;28;20037;-85
2023/01/06 02:20:56;;;;;;;14.00;3.92;;;11.70;99.90;;;;;;5022013;28;20295;-85
2023/01/06 02:23:22;;;;;;;17.02;3.70;;;10.10;99.90;;;;;;5039178;28;20417;-84
2023/01/06 02:26:29;;;;;;;12.70;4.63;;;11.40;99.90;;;;;;5057204;28;20049;-85
2023/01/06 02:29:30;;;;;;;9.38;3.67;;;10.10;99.90;;;;;;5035658;28;20119;-85
2023/01/06 02:32:01;;;;;;;13.15;3.80;;;10.10;99.90;;;;;;5006482;28;20048;-85
2023/01/06 02:35:00;;;;;;;5.05;2.72;;;10.10;99.90;;;;;;5053986;28;20057;-86
2023/01/06 02:37:26;;;;;;;9.60;2.97;;;10.10;99.90;;;;;;5040806;28;20247;-85
2023/01/06 02:40:01;;;;;;;12.00;3.35;;;10.10;99.90;;;;;;5023927;28;20153;-84
2023/01/06 02:42:47;;;;;;;10.60;2.78;;;10.10;99.90;;;;;;5038431;28;20148;-84
2023/01/06 02:45:50;;;;;;;8.10;2.72;;;10.10;99.90;;;;;;5038340;28;20060;-84
2023/01/06 02:48:40;;;;;;;7.72;3.00;;;10.00;99.90;;;;;;5005627;28;20045;-84
2023/01/06 02:51:17;;;;;;;8.88;2.60;;;10.00;99.90;;;;;;5002814;28;20465;-84
2023/01/06 02:54:02;;;;;;;9.43;2.58;;;11.10;99.90;;;;;;5031032;28;20049;-84
2023/01/06 02:56:33;;;;;;;8.52;2.17;;;10.00;99.90;;;;;;5040134;28;20122;-84
2023/01/06 02:59:08;;;;;;;10.27;2.33;;;10.00;99.90;;;;;;5023437;28;20481;-84
2023/01/06 03:01:43;;;;;;;8.45;2.17;;;10.00;99.90;;;;;;5029864;28;20045;-85
2023/01/06 03:04:21;;;;;;;12.73;2.58;;;10.00;99.90;;;;;;5019271;28;20052;-85
2023/01/06 03:06:49;;;;;;;;;;;10.00;99.90;;;;;;5041895;28;20405;-84
2023/01/06 03:09:20;;;;;;;6.28;2.50;;;9.10;99.90;;;;;;5038461;28;20523;-84
2023/01/06 03:11:49;;;;;;;9.60;2.58;;;10.00;99.90;;;;;;5036992;28;20041;-84
2023/01/06 03:14:36;;;;;;;7.60;2.90;;;10.00;99.90;;;;;;5024972;28;20049;-84
2023/01/06 03:17:03;;;;;;;7.03;2.15;;;10.00;99.90;;;;;;5025285;28;20049;-84
2023/01/06 03:19:29;;;;;;;6.45;1.98;;;10.00;99.90;;;;;;5020704;28;20167;-84
2023/01/06 03:21:55;;;;;;;11.68;3.53;;;10.60;99.90;;;;;;5019132;28;20140;-84
2023/01/06 03:24:21;;;;;;;9.88;2.72;;;10.10;99.90;;;;;;5036565;28;20468;-84
2023/01/06 03:26:47;;;;;;;5.68;1.95;;;10.60;99.90;;;;;;5041206;28;20056;-84
2023/01/06 03:29:16;;;;;;;7.97;2.78;;;8.80;99.90;;;;;;5039959;28;20045;-84
2023/01/06 03:31:57;;;;;;;6.53;2.97;;;9.90;99.90;;;;;;5023345;28;20041;-84
2023/01/06 03:34:54;;;;;;;6.43;3.08;;;10.80;99.90;;;;;;5021529;28;20160;-84
2023/01/06 03:37:31;;;;;;;9.50;2.58;;;10.00;99.90;;;;;;5038143;28;20338;-85
2023/01/06 03:40:27;;;;;;;8.50;2.90;;;9.90;99.90;;;;;;5021903;28;20099;-84
2023/01/06 03:43:12;;;;;;;9.70;3.17;;;9.90;99.90;;;;;;5046103;28;20049;-84
2023/01/06 03:46:07;;;;;;;5.15;3.20;;;9.00;99.90;;;;;;5028616;28;20073;-84
2023/01/06 03:48:45;;;;;;;9.90;3.97;;;10.00;99.90;;;;;;5029596;28;20049;-84
2023/01/06 03:51:45;;;;;;;6.28;3.97;;;9.90;99.90;;;;;;5022601;28;20045;-84
2023/01/06 03:54:25;;;;;;;7.00;3.95;;;9.90;99.90;;;;;;5048979;28;20046;-84
2023/01/06 03:57:02;;;;;;;6.15;4.18;;;9.90;99.90;;;;;;5030088;28;20052;-84
2023/01/06 03:59:33;;;;;;;6.72;4.38;;;9.90;99.90;;;;;;5038226;28;20483;-84
2023/01/06 04:01:59;;;;;;;6.45;5.00;;;9.90;99.90;;;;;;5038776;28;20107;-84
2023/01/06 04:04:25;;;;;;;9.90;4.68;;;11.30;99.90;;;;;;5020643;28;20041;-84
2023/01/06 04:06:51;;;;;;;7.75;5.65;;;10.00;99.90;;;;;;5001887;28;20040;-84
2023/01/06 04:09:16;;;;;;;8.05;4.95;;;11.00;99.90;;;;;;5019288;28;20106;-85
2023/01/06 04:14:26;;;;;;;8.18;4.53;;;9.90;99.90;;;;;;5020021;28;20059;-84
2023/01/06 04:16:52;;;;;;;6.53;4.88;;;9.90;99.90;;;;;;5018566;28;20053;-85
2023/01/06 04:19:17;;;;;;;7.78;4.70;;;10.10;99.90;;;;;;5035207;28;20049;-84
2023/01/06 04:21:43;;;;;;;9.40;4.82;;;9.90;99.90;;;;;;5039378;28;20037;-84
2023/01/06 04:24:10;;;;;;;8.77;4.75;;;9.90;99.90;;;;;;5021843;28;20548;-84
2023/01/06 04:26:36;;;;;;;7.50;4.65;;;9.90;99.90;;;;;;5003869;28;20064;-84
2023/01/06 04:29:01;;;;;;;10.27;4.05;;;9.00;99.90;;;;;;5035160;28;20477;-84
2023/01/06 04:31:27;;;;;;;6.95;3.50;;;9.90;99.90;;;;;;5020266;28;20041;-84
2023/01/06 04:33:53;;;;;;;5.13;3.15;;;10.60;99.90;;;;;;5055097;28;20118;-84
2023/01/06 04:36:19;;;;;;;7.68;3.58;;;9.90;99.90;;;;;;5038717;28;20059;-84
2023/01/06 04:38:45;;;;;;;6.78;3.35;;;11.00;99.90;;;;;;5052211;28;20041;-84
2023/01/06 04:41:11;;;;;;;6.68;3.55;;;9.90;99.90;;;;;;5001941;28;20119;-84
2023/01/06 04:43:40;;;;;;;5.30;2.72;;;11.40;99.90;;;;;;5004400;28;20128;-84
2023/01/06 04:46:05;;;;;;;4.35;2.92;;;11.40;99.90;;;;;;5021527;28;20111;-84
2023/01/06 04:48:31;;;;;;;7.25;3.50;;;9.90;99.90;;;;;;5019477;28;20049;-83
2023/01/06 04:51:05;;;;;;;5.78;3.05;;;9.90;99.90;;;;;;5036689;28;20045;-84
2023/01/06 04:53:35;;;;;;;6.70;2.78;;;9.90;99.90;;;;;;5047112;28;20037;-84
2023/01/06 04:56:03;;;;;;;7.13;2.65;;;9.90;99.90;;;;;;5005568;28;20048;-84
2023/01/06 04:58:30;;;;;;;7.50;2.60;;;9.40;99.90;;;;;;5020836;28;20052;-84
2023/01/06 05:01:05;;;;;;;9.77;2.88;;;9.90;99.90;;;;;;5018728;28;20115;-84
2023/01/06 05:03:31;;;;;;;6.43;2.17;;;9.90;99.90;;;;;;5037424;28;20045;-85
2023/01/06 05:06:05;;;;;;;6.35;2.65;;;10.30;99.90;;;;;;5039787;28;20053;-84
2023/01/06 05:08:33;;;;;;;4.38;2.15;;;9.90;99.90;;;;;;5019669;28;20490;-84
2023/01/06 05:11:01;;;;;;;4.30;2.28;;;9.90;99.90;;;;;;5034017;28;20056;-84
2023/01/06 05:13:28;;;;;;;4.95;2.05;;;10.70;99.90;;;;;;5018740;28;20599;-85
2023/01/06 05:15:53;;;;;;;2.70;1.70;;;9.90;99.90;;;;;;5007540;28;20131;-83
2023/01/06 05:18:21;;;;;;;6.97;2.20;;;11.50;99.90;;;;;;5007988;28;20580;-84
2023/01/06 05:20:51;;;;;;;4.68;2.03;;;10.70;99.90;;;;;;5046983;28;20046;-83
2023/01/06 05:23:17;;;;;;;5.13;1.73;;;9.90;99.90;;;;;;5021710;28;20147;-85
2023/01/06 05:25:43;;;;;;;5.05;2.15;;;10.00;99.90;;;;;;5007937;28;20060;-84
2023/01/06 05:28:08;;;;;;;5.78;2.22;;;10.60;99.90;;;;;;5042499;28;20029;-84
2023/01/06 05:30:34;;;;;;;6.38;2.20;;;11.40;99.90;;;;;;5039976;28;20083;-84
2023/01/06 05:32:59;;;;;;;6.22;2.47;;;10.00;99.90;;;;;;5038793;28;20099;-83
2023/01/06 05:35:25;;;;;;;4.85;2.13;;;10.70;99.90;;;;;;5021916;28;20379;-85
2023/01/06 05:37:53;;;;;;;5.88;2.75;;;9.90;99.90;;;;;;5042083;28;20045;-84
2023/01/06 05:40:19;;;;;;;6.35;3.10;;;11.30;99.90;;;;;;5024733;28;20045;-84
2023/01/06 05:42:45;;;;;;;4.57;3.17;;;11.50;99.90;;;;;;5055235;28;20124;-83
2023/01/06 05:45:10;;;;;;;4.93;3.53;;;10.30;99.90;;;;;;5020309;28;20041;-84
2023/01/06 05:47:36;;;;;;;5.50;4.03;;;9.90;99.90;;;;;;5023310;28;20046;-84
2023/01/06 05:50:03;;;;;;;7.22;3.85;;;9.80;99.90;;;;;;5057574;28;20461;-84
2023/01/06 05:52:28;;;;;;;4.72;4.15;;;10.80;99.90;;;;;;5006981;28;20405;-83
2023/01/06 05:54:54;;;;;;;10.65;5.30;;;10.50;99.90;;;;;;5021597;28;20041;-85
2023/01/06 05:57:20;;;;;;;4.85;4.32;;;10.30;99.90;;;;;;5004593;28;21133;-84
2023/01/06 05:59:45;;;;;;;5.05;3.88;;;10.90;99.90;;;;;;5023513;28;20049;-84
2023/01/06 06:02:11;;;;;;;6.85;5.38;;;9.90;99.90;;;;;;5058074;28;20041;-84
2023/01/06 06:04:36;;;;;;;6.45;5.03;;;9.60;99.90;;;;;;5024672;28;20118;-84
2023/01/06 06:07:02;;;;;;;7.88;4.70;;;9.60;99.90;;;;;;5038429;28;20474;-83
2023/01/06 06:09:28;;;;;;;7.25;5.20;;;9.60;99.90;;;;;;5006290;28;20532;-84
2023/01/06 06:11:54;;;;;;;9.05;5.88;;;9.60;99.90;;;;;;5024784;28;20047;-84
2023/01/06 06:14:20;;;;;;;9.18;5.20;;;9.80;99.90;;;;;;5006981;28;20056;-84
2023/01/06 06:16:45;;;;;;;6.15;5.00;;;9.50;99.90;;;;;;5021621;28;20052;-86
2023/01/06 06:19:12;;;;;;;8.13;4.70;;;9.60;99.90;;;;;;5038815;28;20049;-84
2023/01/06 06:21:40;;;;;;;9.07;4.32;;;9.60;99.90;;;;;;5020906;28;20045;-83
2023/01/06 06:24:06;;;;;;;5.60;4.47;;;9.70;99.90;;;;;;5007412;28;20084;-83
2023/01/06 06:26:31;;;;;;;5.40;4.90;;;9.60;99.90;;;;;;5041055;28;20068;-84
2023/01/06 06:28:57;;;;;;;5.05;4.07;;;9.60;99.90;;;;;;5007694;28;20071;-85
2023/01/06 06:31:25;;;;;;;5.85;4.57;;;9.60;99.90;;;;;;5032828;28;20041;-84
2023/01/06 06:33:56;;;;;;;9.13;4.40;;;9.60;99.90;;;;;;5026474;28;20056;-84
2023/01/06 06:36:23;;;;;;;4.70;4.30;;;10.70;99.90;;;;;;5020494;28;20038;-84
2023/01/06 06:38:50;;;;;;;5.15;3.55;;;9.60;99.90;;;;;;5022589;28;20049;-84
2023/01/06 06:41:16;;;;;;;7.10;4.47;;;9.60;99.90;;;;;;5022850;28;20072;-84
2023/01/06 06:43:42;;;;;;;4.00;3.58;;;11.40;99.90;;;;;;5005424;28;20131;-85
2023/01/06 06:46:09;;;;;;;4.20;3.90;;;8.40;99.90;;;;;;5038304;28;20072;-85
2023/01/06 06:48:35;;;;;;;6.93;4.05;;;9.50;99.90;;;;;;5037673;28;20405;-84
2023/01/06 06:51:07;;;;;;;3.75;2.88;;;10.80;99.90;;;;;;5006602;28;20037;-85
2023/01/06 06:53:33;;;;;;;5.18;3.33;;;10.70;99.90;;;;;;5023054;28;20452;-85
2023/01/06 06:56:02;;;;;;;6.10;4.63;;;11.10;99.90;;;;;;5036159;28;20094;-86
2023/01/06 06:58:32;;;;;;;8.32;3.80;;;10.60;99.90;;;;;;5019603;28;20041;-85
2023/01/06 07:00:58;;;;;;;5.45;4.28;;;9.40;99.90;;;;;;5045182;28;20049;-85
2023/01/06 07:03:24;;;;;;;3.65;2.97;;;11.10;99.90;;;;;;5019616;28;20042;-85
2023/01/06 07:05:51;;;;;;;3.85;2.55;;;9.50;99.90;;;;;;5022697;28;20500;-84
2023/01/06 07:08:17;;;;;;;4.63;3.47;;;11.40;99.90;;;;;;5022907;28;20119;-84
2023/01/06 07:10:43;;;;;;;7.53;3.50;;;9.60;99.90;;;;;;5003829;28;20503;-84
2023/01/06 07:13:09;;;;;;;5.55;3.42;;;11.20;99.90;;;;;;5032073;28;20046;-84
2023/01/06 07:15:35;;;;;;;3.60;3.30;;;9.60;99.90;;;;;;5016636;28;20038;-84
2023/01/06 07:18:02;;;;;;;2.90;2.70;;;9.50;99.90;;;;;;5018655;28;20417;-84
2023/01/06 07:20:29;;;;;;;2.22;1.98;;;11.10;99.90;;;;;;5019642;28;20421;-84
2023/01/06 07:22:55;;;;;;;2.15;1.95;;;9.60;99.90;;;;;;5003415;28;20044;-84
2023/01/06 07:25:20;;;;;;;1.00;1.00;;;9.60;99.90;;;;;;5018714;28;20053;-84
2023/01/06 07:27:46;;;;;;;3.70;2.10;;;11.30;99.90;;;;;;5017175;28;20037;-85
2023/01/06 07:30:12;;;;;;;1.90;1.17;;;9.70;99.90;;;;;;4999105;28;20056;-84
2023/01/06 07:32:38;;;;;;;2.75;1.70;;;9.70;99.90;;;;;;5017709;28;20411;-85
2023/01/06 07:35:07;;;;;;;3.67;1.45;;;9.70;99.90;;;;;;5002846;28;20505;-85
2023/01/06 07:37:32;;;;;;;1.27;1.13;;;9.80;99.90;;;;;;5018071;28;20038;-84
2023/01/06 07:39:58;;;;;;;1.25;0.90;;;11.10;99.90;;;;;;5017238;28;20530;-84
2023/01/06 07:42:24;;;;;;;1.65;0.82;;;9.80;99.90;;;;;;5017643;28;20045;-84
2023/01/06 07:44:50;;;;;;;1.85;0.65;;;11.00;99.90;;;;;;5000933;28;20046;-84
2023/01/06 07:47:15;;;;;;;2.78;0.75;;;9.80;99.90;;;;;;5002853;28;20048;-84
2023/01/06 07:49:46;;;;;;;4.53;0.70;;;10.80;99.90;;;;;;5019494;28;20049;-84
2023/01/06 07:52:15;;;;;;;4.32;0.68;;;9.80;99.90;;;;;;4998649;28;20478;-84
2023/01/06 07:54:43;;;;;;;2.83;0.45;;;9.70;99.90;;;;;;5017811;28;20080;-84
2023/01/06 07:57:11;;;;;;;8.75;0.90;;;9.60;99.90;;;;;;5018958;28;20049;-85
2023/01/06 07:59:37;;;;;;;5.47;0.90;;;9.50;99.90;;;;;;5002113;28;20049;-85
2023/01/06 08:02:03;;;;;;;3.05;0.63;;;9.30;99.90;;;;;;5032076;28;20041;-84
2023/01/06 08:04:29;;;;;;;3.30;0.50;;;9.20;99.90;;;;;;5048564;28;20046;-84
2023/01/06 08:06:54;;;;;;;10.13;0.80;;;9.20;99.90;;;;;;5000782;28;20077;-84
2023/01/06 08:09:24;;;;;;;4.82;0.68;;;9.80;99.90;;;;;;5020959;28;20444;-85
2023/01/06 08:11:49;;;;;;;2.35;0.90;;;9.10;99.90;;;;;;5023252;28;20474;-84
2023/01/06 08:14:18;;;;;;;3.20;0.40;;;9.50;99.90;;;;;;5017183;28;20486;-84
2023/01/06 08:16:43;;;;;;;4.50;0.98;;;8.90;99.90;;;;;;5020934;28;20108;-85
2023/01/06 08:19:09;;;;;;;1.23;0.38;;;10.00;99.90;;;;;;5005155;28;20054;-84
2023/01/06 08:21:35;;;;;;;5.60;0.50;;;10.10;99.90;;;;;;5006984;28;20432;-84
2023/01/06 08:24:00;;;;;;;3.25;0.52;;;10.30;99.90;;;;;;5018301;28;20076;-84
2023/01/06 08:26:26;;;;;;;5.75;0.88;;;10.10;99.90;;;;;;5048717;28;20128;-84
2023/01/06 08:28:52;;;;;;;3.10;0.85;;;9.30;99.90;;;;;;5017154;28;20062;-84
2023/01/06 08:31:19;;;;;;;7.97;0.60;;;10.20;99.90;;;;;;5006045;28;20435;-84
2023/01/06 08:33:46;;;;;;;5.15;0.55;;;8.40;99.90;;;;;;5015420;28;20088;-84
2023/01/06 08:36:14;;;;;;;7.95;0.85;;;9.90;99.90;;;;;;5018774;28;20044;-84
2023/01/06 08:38:40;;;;;;;4.53;1.50;;;9.90;99.90;;;;;;5020200;28;20037;-85
2023/01/06 08:41:06;;;;;;;9.00;1.55;;;10.00;99.90;;;;;;4998440;28;20048;-84
2023/01/06 08:43:32;;;;;;;5.30;1.10;;;9.70;99.90;;;;;;5015111;28;20038;-83
2023/01/06 08:46:03;;;;;;;7.57;1.10;;;10.00;99.90;;;;;;5017353;28;20052;-84
2023/01/06 08:48:30;;;;;;;9.25;1.13;;;8.20;99.90;;;;;;5017654;28;20132;-84
2023/01/06 08:51:02;;;;;;;4.88;0.60;;;9.20;99.90;;;;;;5020415;28;20033;-84
2023/01/06 08:53:27;;;;;;;8.32;0.70;;;8.90;99.90;;;;;;5002339;28;20129;-85
2023/01/06 08:55:53;;;;;;;6.72;1.15;;;9.80;99.90;;;;;;5026787;28;20052;-84
2023/01/06 08:58:19;;;;;;;13.27;1.50;;;8.10;99.90;;;;;;5018778;28;20033;-84
2023/01/06 09:00:44;;;;;;;5.90;0.60;;;9.30;99.90;;;;;;5051520;28;20095;-84
2023/01/06 09:03:10;;;;;;;10.45;1.02;;;8.00;99.90;;;;;;5019073;28;20084;-85
2023/01/06 09:05:36;;;;;;;6.28;1.00;;;8.00;99.90;;;;;;5052254;28;20037;-85
2023/01/06 09:08:01;;;;;;;8.00;1.20;;;9.10;99.90;;;;;;5020725;28;20129;-85
2023/01/06 09:10:27;;;;;;;12.10;1.25;;;8.00;99.90;;;;;;5021103;28;20045;-84
2023/01/06 09:12:53;;;;;;;13.50;1.15;;;8.00;99.90;;;;;;5030635;28;20056;-84
2023/01/06 09:15:18;;;;;;;9.57;1.35;;;7.90;99.90;;;;;;5054860;28;20117;-84
2023/01/06 09:17:44;;;;;;;8.57;1.27;;;8.90;99.90;;;;;;5004684;28;20406;-84
2023/01/06 09:20:10;;;;;;;14.68;1.65;;;7.80;99.90;;;;;;5008233;28;20404;-84
2023/01/06 09:22:36;;;;;;;12.02;1.33;;;8.40;99.90;;;;;;5025165;28;20416;-84
2023/01/06 09:25:01;;;;;;;9.27;1.17;;;8.90;99.90;;;;;;5055178;28;20132;-84
2023/01/06 09:27:27;;;;;;;18.33;2.33;;;7.90;99.90;;;;;;5021703;28;20041;-84
2023/01/06 09:29:53;;;;;;;15.68;1.98;;;7.90;99.90;;;;;;5021735;28;20049;-84
2023/01/06 09:32:18;;;;;;;11.80;2.50;;;8.80;99.90;;;;;;5041259;28;20090;-85
2023/01/06 09:34:44;;;;;;;10.90;1.17;;;8.60;99.90;;;;;;5008751;28;20378;-85
2023/01/06 09:37:09;;;;;;;11.70;1.67;;;8.00;99.90;;;;;;5021020;28;20496;-85
2023/01/06 09:39:38;;;;;;;14.27;2.72;;;8.20;99.90;;;;;;5021435;28;20041;-85
2023/01/06 09:42:28;;;;;;;15.20;2.55;;;8.10;99.90;;;;;;5039609;28;20045;-84
2023/01/06 09:45:09;;;;;;;14.10;1.52;;;8.00;99.90;;;;;;5040264;28;20529;-84
2023/01/06 09:47:46;;;;;;;8.43;1.05;;;7.80;99.90;;;;;;5053974;28;20401;-84
2023/01/06 09:50:28;;;;;;;10.75;1.45;;;8.20;99.90;;;;;;5025717;28;20072;-84
2023/01/06 09:53:17;;;;;;;11.82;1.42;;;9.10;99.90;;;;;;5041653;28;20087;-84
2023/01/06 09:55:48;;;;;;;13.30;1.98;;;8.20;99.90;;;;;;5032827;28;20052;-84
2023/01/06 09:58:39;;;;;;;13.23;1.38;;;8.50;99.90;;;;;;5027423;28;20136;-84
2023/01/06 10:01:14;;;;;;;7.97;1.00;;;8.30;99.90;;;;;;5022392;28;20075;-84
2023/01/06 10:03:45;;;;;;;7.97;1.80;;;9.30;99.90;;;;;;5008483;28;20501;-85
2023/01/06 10:06:26;;;;;;;17.38;2.17;;;8.40;99.90;;;;;;5055131;28;20045;-84
2023/01/06 10:09:04;;;;;;;5.85;1.10;;;8.50;99.90;;;;;;5039354;28;20220;-84
2023/01/06 10:11:39;;;;;;;3.90;1.10;;;8.60;99.90;;;;;;5047500;28;20044;-84
2023/01/06 10:14:51;;;;;;;7.38;0.88;;;8.70;99.90;;;;;;5037720;28;20081;-84
2023/01/06 10:17:25;;;;;;;9.27;1.52;;;8.70;99.90;;;;;;5004214;28;20187;-84
2023/01/06 10:20:09;;;;;;;;;;;8.70;99.90;;;;;;5061478;28;20389;-84
2023/01/06 10:22:50;;;;;;;7.55;0.90;;;8.80;99.90;;;;;;5032489;28;19920;-84
2023/01/06 10:25:31;;;;;;;7.45;1.33;;;8.70;99.90;;;;;;5023520;28;20556;-84
2023/01/06 10:28:28;;;;;;;11.32;1.20;;;8.70;99.90;;;;;;5007530;28;20269;-84
2023/01/06 10:30:58;;;;;;;16.15;2.22;;;8.70;99.90;;;;;;5033748;28;20057;-85
2023/01/06 10:33:37;;;;;;;7.45;1.40;;;9.30;99.90;;;;;;5014824;28;20037;-84
2023/01/06 10:36:10;;;;;;;9.90;1.40;;;8.80;99.90;;;;;;5004679;28;20049;-85
2023/01/06 10:38:53;;;;;;;10.55;0.98;;;8.90;99.90;;;;;;5022788;28;20550;-84
2023/01/06 10:41:23;;;;;;;10.65;1.35;;;10.30;99.90;;;;;;5003513;28;20497;-84
2023/01/06 10:43:49;;;;;;;6.25;0.77;;;9.10;99.90;;;;;;5044960;28;20456;-84
2023/01/06 10:46:15;;;;;;;7.20;1.23;;;9.80;99.90;;;;;;5021037;28;20048;-84
2023/01/06 10:48:42;;;;;;;8.77;1.00;;;9.30;99.90;;;;;;5037409;28;20057;-84
2023/01/06 10:51:30;;;;;;;9.90;1.55;;;10.30;99.90;;;;;;5054328;28;20497;-84
2023/01/06 10:53:59;;;;;;;8.90;1.00;;;8.90;99.90;;;;;;5041438;28;20063;-83
2023/01/06 10:56:28;;;;;;;11.45;1.63;;;8.90;99.90;;;;;;5027540;28;20045;-83
2023/01/06 10:58:58;;;;;;;13.27;1.45;;;8.70;99.90;;;;;;5019610;28;20048;-85
2023/01/06 11:01:30;;;;;;;11.73;1.50;;;8.80;99.90;;;;;;5032017;28;20489;-81
2023/01/06 11:04:14;;;;;;;10.15;1.35;;;8.80;99.90;;;;;;4998905;28;20038;-85
2023/01/06 11:06:53;;;;;;;15.30;1.92;;;8.90;99.90;;;;;;5000960;28;20037;-86
2023/01/06 11:09:38;;;;;;;9.35;1.35;;;8.90;99.90;;;;;;5038746;28;20095;-85
2023/01/06 11:12:18;;;;;;;10.70;1.80;;;8.80;99.90;;;;;;5015278;28;20394;-85
2023/01/06 11:14:54;;;;;;;16.42;2.42;;;8.80;99.90;;;;;;5038699;28;20502;-85
2023/01/06 11:17:28;;;;;;;5.32;1.00;;;9.00;99.90;;;;;;5035594;28;20129;-90
2023/01/06 11:20:12;;;;;;;8.77;1.27;;;9.70;99.90;;;;;;5035696;28;20046;-85
2023/01/06 11:22:43;;;;;;;8.20;2.10;;;8.90;99.90;;;;;;5030497;28;20045;-86
2023/01/06 11:25:28;;;;;;;9.70;1.48;;;10.60;99.90;;;;;;5000546;28;20156;-88
2023/01/06 11:28:18;;;;;;;10.82;1.98;;;8.90;99.90;;;;;;5052373;28;20034;-85
2023/01/06 11:31:07;;;;;;;15.18;2.78;;;8.90;99.90;;;;;;5054741;28;20455;-88
2023/01/06 11:33:36;;;;;;;9.73;1.55;;;9.10;99.90;;;;;;5004672;28;20041;-89
2023/01/06 11:36:12;;;;;;;16.10;1.85;;;10.20;99.90;;;;;;5017880;28;20041;-86
2023/01/06 11:38:53;;;;;;;13.80;2.53;;;9.10;99.90;;;;;;4993417;28;20647;-86
2023/01/06 11:41:38;;;;;;;7.88;1.58;;;9.60;99.90;;;;;;5002653;28;20048;-89
2023/01/06 11:44:21;;;;;;;12.93;1.90;;;10.80;99.90;;;;;;4993016;28;20107;-89
2023/01/06 11:46:53;;;;;;;9.90;1.40;;;9.20;99.90;;;;;;5034312;28;20040;-87
2023/01/06 11:49:35;;;;;;;13.02;1.73;;;9.10;99.90;;;;;;5009873;28;20121;-87
2023/01/06 11:52:07;;;;;;;12.75;1.40;;;9.10;99.90;;;;;;5011250;28;20091;-89
2023/01/06 11:54:36;;;;;;;5.70;1.63;;;8.30;99.90;;;;;;5010645;28;20485;-89
2023/01/06 11:57:26;;;;;;;12.10;1.50;;;10.10;99.90;;;;;;5008200;28;20573;-87
2023/01/06 12:00:10;;;;;;;11.38;1.50;;;9.30;99.90;;;;;;5028699;28;20060;-90
2023/01/06 12:03:02;;;;;;;13.82;1.42;;;9.30;99.90;;;;;;5017566;28;20037;-85
2023/01/06 12:05:37;;;;;;;7.20;1.10;;;9.30;99.90;;;;;;5004497;28;20060;-89
2023/01/06 12:08:25;;;;;;;12.73;1.35;;;9.30;99.90;;;;;;5019481;28;20836;-87
2023/01/06 12:10:58;;;;;;;8.00;1.50;;;9.30;99.90;;;;;;4997687;28;20038;-86
2023/01/06 12:13:26;;;;;;;12.35;1.35;;;9.40;99.90;;;;;;5032112;28;20053;-90
2023/01/06 12:16:01;;;;;;;10.65;1.55;;;8.90;99.90;;;;;;5027751;28;20045;-87
2023/01/06 12:18:31;;;;;;;13.75;1.60;;;9.30;99.90;;;;;;4995545;28;20183;-85
2023/01/06 12:20:59;;;;;;;6.90;0.93;;;9.20;99.90;;;;;;5009774;28;20623;-86
2023/01/06 12:23:38;;;;;;;10.85;1.48;;;9.30;99.90;;;;;;5028643;28;20076;-86
2023/01/06 12:26:24;;;;;;;6.47;0.98;;;9.20;99.90;;;;;;5013498;28;20037;-85
2023/01/06 12:28:52;;;;;;;8.48;1.83;;;9.30;99.90;;;;;;5030809;28;20049;-89
2023/01/06 12:31:29;;;;;;;9.77;1.58;;;9.30;99.90;;;;;;4998421;28;20053;-86
2023/01/06 12:34:12;;;;;;;16.20;2.38;;;9.20;99.90;;;;;;5034172;28;20077;-89
2023/01/06 12:36:47;;;;;;;11.75;1.42;;;9.30;99.90;;;;;;5006670;28;20049;-88
2023/01/06 12:39:36;;;;;;;17.65;1.73;;;9.20;99.90;;;;;;5054876;28;20131;-89
2023/01/06 12:42:27;;;;;;;5.40;1.08;;;9.10;99.90;;;;;;4689982;28;9999620;-88
2023/01/06 12:45:02;;;;;;;11.60;2.03;;;9.10;99.90;;;;;;4641171;28;10000217;-90
2023/01/06 12:47:38;;;;;;;6.57;1.10;;;10.10;99.90;;;;;;5004843;28;20073;-88
2023/01/06 12:50:14;;;;;;;8.38;1.48;;;9.00;99.90;;;;;;4999254;28;20071;-84
2023/01/06 12:52:57;;;;;;;9.85;1.45;;;9.30;99.90;;;;;;5001611;28;20041;-87
2023/01/06 12:55:50;;;;;;;12.73;1.65;;;8.10;99.90;;;;;;5015554;28;20140;-87
2023/01/06 12:58:39;;;;;;;10.80;2.30;;;9.10;99.90;;;;;;5013486;28;20064;-86
2023/01/06 13:01:13;;;;;;;11.05;2.17;;;9.40;99.90;;;;;;5007279;28;20367;-90
2023/01/06 13:03:58;;;;;;;;;;;9.10;99.90;;;;;;4700443;28;10000008;-87
2023/01/06 13:06:41;;;;;;;14.15;1.55;;;9.10;99.90;;;;;;5000124;28;19921;-87
2023/01/06 13:09:30;;;;;;;15.70;1.83;;;9.00;99.90;;;;;;5042784;28;20048;-87
2023/01/06 13:12:11;;;;;;;12.80;1.60;;;9.20;99.90;;;;;;5017220;28;20040;-87
2023/01/06 13:14:44;;;;;;;14.50;2.05;;;9.00;99.90;;;;;;5045626;28;20176;-82
2023/01/06 13:17:24;;;;;;;9.82;1.48;;;10.10;99.90;;;;;;5041921;28;20047;-86